Time;durP1;ratioP1;P1;durP2;ratioP2;P2;SDS_P1;SDS_P2;PMS_P1;PMS_P2;Temp;Humidity;BMP_temperature;BMP_pressure;BME280_temperature;BME280_humidity;BME280_pressure;Samples;Min_cycle;Max_cycle;Signal;HPM_P1;HPM_P2
2021/05/05 00:01:13;;;;;;;;;;;;;;;20.69;31.29;98633.72;4430598;32;19954;-54
2021/05/05 00:03:39;;;;;;;;;;;;;;;20.79;30.87;98629.16;4430360;32;19950;-52
2021/05/05 00:06:05;;;;;;;;;;;;;;;20.86;31.16;98632.59;4415753;32;20301;-50
2021/05/05 00:08:31;;;;;;;;;;;;;;;20.73;31.24;98630.13;4415487;32;19954;-51
2021/05/05 00:10:57;;;;;;;;;;;;;;;20.76;30.66;98616.84;4430359;32;20285;-56
2021/05/05 00:13:23;;;;;;;;;;;;;;;20.78;31.16;98622.97;4430522;32;20052;-55
2021/05/05 00:15:49;;;;;;;;;;;;;;;20.89;30.55;98627.22;4417167;32;19999;-54
2021/05/05 00:18:14;;;;;;;;;;;;;;;20.89;31.00;98627.22;4415705;32;20294;-54
2021/05/05 00:20:40;;;;;;;;;;;;;;;20.81;31.09;98626.47;4429755;32;19961;-52
2021/05/05 00:23:06;;;;;;;;;;;;;;;20.77;31.17;98615.94;4433565;32;20419;-53
2021/05/05 00:25:32;;;;;;;;;;;;;;;20.73;31.38;98618.66;4433012;32;20350;-53
2021/05/05 00:27:58;;;;;;;;;;;;;;;20.77;30.88;98615.94;4434328;32;19960;-55
2021/05/05 00:30:24;;;;;;;;;;;;;;;20.76;31.30;98619.47;4423343;32;20385;-54
2021/05/05 00:32:50;;;;;;;;;;;;;;;20.83;31.08;98624.72;4419187;32;19946;-55
2021/05/05 00:35:16;;;;;;;;;;;;;;;20.75;31.27;98620.38;4425457;32;19992;-52
2021/05/05 00:37:42;;;;;;;;;;;;;;;20.79;31.16;98632.66;4434680;32;19946;-55
2021/05/05 00:40:08;;;;;;;;;;;;;;;20.70;31.04;98622.25;4421859;32;19957;-52
2021/05/05 00:42:33;;;;;;;;;;;;;;;20.63;31.52;98623.22;4418584;32;19942;-55
2021/05/05 00:44:59;;;;;;;;;;;;;;;20.59;31.34;98626.84;4423024;32;20583;-53
2021/05/05 00:47:25;;;;;;;;;;;;;;;20.61;31.48;98632.97;4434236;32;20347;-55
2021/05/05 00:49:51;;;;;;;;;;;;;;;20.74;31.24;98625.69;4429689;32;20003;-54
2021/05/05 00:52:17;;;;;;;;;;;;;;;20.78;31.38;98633.53;4417642;32;20052;-54
2021/05/05 00:54:43;;;;;;;;;;;;;;;20.81;31.03;98631.78;4420331;32;20366;-55
2021/05/05 00:57:09;;;;;;;;;;;;;;;20.76;31.04;98629.19;4433627;32;20216;-55
2021/05/05 00:59:35;;;;;;;;;;;;;;;20.73;30.63;98627.47;4431495;32;19950;-54
2021/05/05 01:02:00;;;;;;;;;;;;;;;20.68;31.00;98620.50;4418546;32;19958;-55
2021/05/05 01:04:26;;;;;;;;;;;;;;;20.71;31.40;98617.81;4418434;32;19961;-54
2021/05/05 01:06:52;;;;;;;;;;;;;;;20.68;31.29;98621.41;4433618;32;20332;-55
2021/05/05 01:09:18;;;;;;;;;;;;;;;20.68;30.83;98616.13;4432324;32;19965;-53
2021/05/05 01:11:45;;;;;;;;;;;;;;;20.74;31.14;98613.34;4419767;32;19954;-56
2021/05/05 01:14:11;;;;;;;;;;;;;;;20.69;31.01;98616.97;4433494;32;20267;-54
2021/05/05 01:16:36;;;;;;;;;;;;;;;20.69;30.83;98625.78;4433130;32;19993;-54
2021/05/05 01:19:02;;;;;;;;;;;;;;;20.72;30.80;98616.91;4432888;32;19988;-53
2021/05/05 01:21:28;;;;;;;;;;;;;;;20.69;31.14;98609.91;4433223;32;20693;-55
2021/05/05 01:23:54;;;;;;;;;;;;;;;20.58;31.15;98614.50;4432903;32;19964;-55
2021/05/05 01:26:20;;;;;;;;;;;;;;;20.65;31.25;98610.84;4422855;32;19950;-56
2021/05/05 01:28:46;;;;;;;;;;;;;;;20.69;31.07;98606.37;4417574;32;20014;-54
2021/05/05 01:31:12;;;;;;;;;;;;;;;20.66;30.79;98604.66;4425102;32;19938;-53
2021/05/05 01:33:37;;;;;;;;;;;;;;;20.62;31.23;98602.97;4432981;32;19958;-55
2021/05/05 01:36:03;;;;;;;;;;;;;;;20.72;30.73;98601.03;4426301;32;19961;-54
2021/05/05 01:38:29;;;;;;;;;;;;;;;20.74;30.75;98600.13;4417590;32;19954;-54
2021/05/05 01:40:55;;;;;;;;;;;;;;;20.71;31.10;98605.47;4422744;32;20369;-56
2021/05/05 01:43:21;;;;;;;;;;;;;;;20.68;31.19;98599.34;4424640;32;19983;-54
2021/05/05 01:45:47;;;;;;;;;;;;;;;20.72;30.82;98606.31;4421459;32;19949;-55
2021/05/05 01:48:15;;;;;;;;;;;;;;;20.76;30.88;98605.41;4431960;32;20297;-53
2021/05/05 01:50:41;;;;;;;;;;;;;;;20.62;31.00;98617.09;4433070;32;20008;-54
2021/05/05 01:53:07;;;;;;;;;;;;;;;20.63;31.29;98608.25;4432447;32;19977;-55
2021/05/05 01:55:33;;;;;;;;;;;;;;;20.57;31.42;98618.06;4431192;32;19962;-53
2021/05/05 01:57:59;;;;;;;;;;;;;;;20.60;31.26;98618.84;4417530;32;20010;-50
2021/05/05 02:00:25;;;;;;;;;;;;;;;20.64;31.22;98615.28;4417203;32;19953;-54
2021/05/05 02:02:51;;;;;;;;;;;;;;;20.65;30.87;98616.13;4417399;32;19950;-55
2021/05/05 02:05:17;;;;;;;;;;;;;;;20.67;31.09;98609.03;4416858;32;19962;-56
2021/05/05 02:07:43;;;;;;;;;;;;;;;20.63;31.34;98615.28;4417399;32;19962;-53
2021/05/05 02:10:09;;;;;;;;;;;;;;;20.67;31.29;98624.91;4414900;32;19946;-55
2021/05/05 02:12:34;;;;;;;;;;;;;;;20.62;31.22;98624.13;4430004;32;20325;-55
2021/05/05 02:15:00;;;;;;;;;;;;;;;20.62;31.21;98621.50;4418248;32;19968;-52
2021/05/05 02:17:26;;;;;;;;;;;;;;;20.56;31.10;98626.84;4432575;32;19937;-55
2021/05/05 02:19:52;;;;;;;;;;;;;;;20.54;31.28;98624.25;4432077;32;20296;-55
2021/05/05 02:22:18;;;;;;;;;;;;;;;20.67;31.15;98608.19;4432284;32;19950;-53
2021/05/05 02:24:44;;;;;;;;;;;;;;;20.69;31.10;98612.56;4431198;32;20307;-54
2021/05/05 02:27:10;;;;;;;;;;;;;;;20.65;30.88;98610.84;4423131;32;19951;-55
2021/05/05 02:29:36;;;;;;;;;;;;;;;20.56;31.27;98608.34;4416737;32;19961;-55
2021/05/05 02:32:02;;;;;;;;;;;;;;;20.48;31.14;98605.84;4423785;32;19965;-55
2021/05/05 02:34:27;;;;;;;;;;;;;;;20.61;31.15;98607.38;4432202;32;19968;-54
2021/05/05 02:36:53;;;;;;;;;;;;;;;20.62;30.75;98603.88;4426519;32;20021;-55
2021/05/05 02:39:19;;;;;;;;;;;;;;;20.56;31.20;98611.00;4415425;32;20361;-56
2021/05/05 02:41:45;;;;;;;;;;;;;;;20.45;30.99;98609.44;4420256;32;20011;-52
2021/05/05 02:44:11;;;;;;;;;;;;;;;20.48;31.38;98603.19;4431336;32;19954;-54
2021/05/05 02:46:37;;;;;;;;;;;;;;;20.45;31.27;98601.50;4432074;32;20019;-55
2021/05/05 02:49:03;;;;;;;;;;;;;;;20.48;31.21;98604.06;4431272;32;20209;-55
2021/05/05 02:51:29;;;;;;;;;;;;;;;20.58;31.12;98598.66;4431459;32;20365;-55
2021/05/05 02:53:55;;;;;;;;;;;;;;;20.58;31.16;98588.06;4431632;32;19965;-55
2021/05/05 02:56:21;;;;;;;;;;;;;;;20.57;31.08;98591.63;4416863;32;19957;-56
2021/05/05 02:58:46;;;;;;;;;;;;;;;20.57;31.30;98596.91;4416434;32;19988;-56
2021/05/05 03:01:12;;;;;;;;;;;;;;;20.50;31.23;98590.84;4415557;32;19954;-56
2021/05/05 03:03:38;;;;;;;;;;;;;;;20.52;31.35;98609.31;4431022;32;19964;-50
2021/05/05 03:06:04;;;;;;;;;;;;;;;20.44;31.21;98607.69;4430771;32;19933;-53
2021/05/05 03:08:31;;;;;;;;;;;;;;;20.54;30.93;98607.50;4431408;32;19946;-53
2021/05/05 03:10:57;;;;;;;;;;;;;;;20.43;31.28;98605.06;4431146;32;20524;-54
2021/05/05 03:13:22;;;;;;;;;;;;;;;20.48;31.29;98614.66;4420875;32;20044;-55
2021/05/05 03:15:48;;;;;;;;;;;;;;;20.46;31.20;98611.16;4424998;32;20653;-55
2021/05/05 03:18:14;;;;;;;;;;;;;;;20.54;31.30;98607.50;4431060;32;19950;-55
2021/05/05 03:20:40;;;;;;;;;;;;;;;20.50;31.08;98607.56;4431336;32;19954;-54
2021/05/05 03:23:06;;;;;;;;;;;;;;;20.46;31.35;98608.53;4422477;32;20020;-55
2021/05/05 03:25:32;;;;;;;;;;;;;;;20.45;31.35;98601.50;4416255;32;19968;-55
2021/05/05 03:27:58;;;;;;;;;;;;;;;20.39;31.26;98604.22;4423401;32;19953;-56
2021/05/05 03:30:24;;;;;;;;;;;;;;;20.44;31.17;98607.69;4430548;32;19958;-54
2021/05/05 03:32:49;;;;;;;;;;;;;;;20.40;31.28;98603.31;4426462;32;19958;-53
2021/05/05 03:35:15;;;;;;;;;;;;;;;20.43;31.27;98611.19;4416046;32;19942;-53
2021/05/05 03:37:41;;;;;;;;;;;;;;;20.44;31.24;98606.78;4420422;32;19962;-56
2021/05/05 03:40:07;;;;;;;;;;;;;;;20.48;31.19;98612.00;4429355;32;20005;-52
2021/05/05 03:42:33;;;;;;;;;;;;;;;20.42;31.43;98611.25;4428625;32;20280;-55
2021/05/05 03:44:59;;;;;;;;;;;;;;;20.31;31.29;98608.75;4416425;32;19960;-54
2021/05/05 03:47:25;;;;;;;;;;;;;;;20.38;31.21;98607.75;4430192;32;19972;-54
2021/05/05 03:49:51;;;;;;;;;;;;;;;20.48;30.92;98619.94;4431023;32;20397;-50
2021/05/05 03:52:17;;;;;;;;;;;;;;;20.44;31.14;98618.25;4431018;32;19985;-52
2021/05/05 03:54:42;;;;;;;;;;;;;;;20.42;31.22;98617.38;4430428;32;20355;-55
2021/05/05 03:57:08;;;;;;;;;;;;;;;20.33;31.20;98609.62;4430487;32;19963;-55
2021/05/05 03:59:35;;;;;;;;;;;;;;;20.35;31.33;98618.41;4416844;32;19979;-53
2021/05/05 04:02:01;;;;;;;;;;;;;;;20.40;31.06;98621.81;4416072;32;19937;-55
2021/05/05 04:04:27;;;;;;;;;;;;;;;20.38;30.99;98623.63;4428542;32;19968;-53
2021/05/05 04:06:52;;;;;;;;;;;;;;;20.37;31.05;98627.16;4431149;32;19950;-54
2021/05/05 04:09:18;;;;;;;;;;;;;;;20.37;31.16;98632.47;4417798;32;19950;-55
2021/05/05 04:11:44;;;;;;;;;;;;;;;20.36;31.30;98636.00;4415409;32;19996;-55
2021/05/05 04:14:11;;;;;;;;;;;;;;;20.40;30.80;98636.84;4425390;32;19964;-54
2021/05/05 04:16:37;;;;;;;;;;;;;;;20.40;30.99;98644.75;4430837;32;20370;-52
2021/05/05 04:19:02;;;;;;;;;;;;;;;20.34;31.05;98643.09;4422201;32;19972;-53
2021/05/05 04:21:28;;;;;;;;;;;;;;;20.39;31.09;98641.22;4416053;32;20310;-55
2021/05/05 04:23:54;;;;;;;;;;;;;;;20.38;31.06;98644.78;4422242;32;19954;-54
2021/05/05 04:26:20;;;;;;;;;;;;;;;20.34;31.32;98643.09;4430769;32;20307;-54
2021/05/05 04:28:46;;;;;;;;;;;;;;;20.31;31.04;98649.28;4424355;32;20003;-53
2021/05/05 04:31:12;;;;;;;;;;;;;;;20.33;31.06;98652.78;4415568;32;19970;-53
2021/05/05 04:33:39;;;;;;;;;;;;;;;20.35;31.08;98660.69;4420450;32;19999;-52
2021/05/05 04:36:05;;;;;;;;;;;;;;;20.33;31.16;98657.19;4430627;32;20637;-54
2021/05/05 04:38:31;;;;;;;;;;;;;;;20.32;30.99;98663.38;4426810;32;19964;-53
2021/05/05 04:40:57;;;;;;;;;;;;;;;20.33;31.18;98663.34;4420099;32;19961;-55
2021/05/05 04:43:23;;;;;;;;;;;;;;;20.29;31.21;98668.69;4428876;32;20036;-55
2021/05/05 04:45:49;;;;;;;;;;;;;;;20.29;31.15;98666.06;4429565;32;20305;-56
2021/05/05 04:48:14;;;;;;;;;;;;;;;20.35;30.80;98681.84;4431450;32;19954;-53
2021/05/05 04:50:40;;;;;;;;;;;;;;;20.33;31.00;98686.28;4416233;32;19984;-55
2021/05/05 04:53:08;;;;;;;;;;;;;;;20.22;31.26;98683.75;4416040;32;20015;-53
2021/05/05 04:55:34;;;;;;;;;;;;;;;20.26;31.11;98695.19;4425588;32;20270;-52
2021/05/05 04:58:00;;;;;;;;;;;;;;;20.25;31.28;98688.16;4424042;32;19973;-57
2021/05/05 05:00:26;;;;;;;;;;;;;;;20.30;30.97;98695.13;4423967;32;19949;-55
2021/05/05 05:02:51;;;;;;;;;;;;;;;20.32;30.82;98697.75;4424708;32;19949;-56
2021/05/05 05:05:17;;;;;;;;;;;;;;;20.18;31.39;98701.44;4423709;32;20321;-55
2021/05/05 05:07:43;;;;;;;;;;;;;;;20.24;31.03;98699.63;4425604;32;20344;-55
2021/05/05 05:10:09;;;;;;;;;;;;;;;20.20;31.44;98697.03;4423679;32;19993;-54
2021/05/05 05:12:35;;;;;;;;;;;;;;;20.26;31.04;98706.63;4425812;32;19979;-56
2021/05/05 05:15:01;;;;;;;;;;;;;;;20.20;31.32;98719.91;4425660;32;19954;-56
2021/05/05 05:17:27;;;;;;;;;;;;;;;20.27;31.04;98720.72;4426959;32;19942;-54
2021/05/05 05:19:53;;;;;;;;;;;;;;;20.32;31.00;98724.19;4425202;32;19950;-55
2021/05/05 05:22:18;;;;;;;;;;;;;;;20.36;30.81;98733.81;4425805;32;19950;-53
2021/05/05 05:24:44;;;;;;;;;;;;;;;20.34;31.07;98732.97;4425352;32;19949;-56
2021/05/05 05:27:10;;;;;;;;;;;;;;;20.40;30.80;98727.56;4424952;32;19989;-55
2021/05/05 05:29:36;;;;;;;;;;;;;;;20.41;30.79;98729.31;4426645;32;19982;-55
2021/05/05 05:32:02;;;;;;;;;;;;;;;20.26;31.20;98730.44;4426082;32;19954;-57
2021/05/05 05:34:28;;;;;;;;;;;;;;;20.24;31.33;98731.34;4426413;32;20044;-55
2021/05/05 05:36:54;;;;;;;;;;;;;;;20.29;31.24;98737.41;4417726;32;19968;-54
2021/05/05 05:39:20;;;;;;;;;;;;;;;20.27;31.28;98741.88;4423205;32;20328;-55
2021/05/05 05:41:46;;;;;;;;;;;;;;;20.26;31.33;98743.66;4426173;32;19964;-56
2021/05/05 05:44:12;;;;;;;;;;;;;;;20.18;31.44;98742.87;4425537;32;19988;-56
2021/05/05 05:46:38;;;;;;;;;;;;;;;20.33;31.18;98747.09;4426060;32;20361;-56
2021/05/05 05:49:04;;;;;;;;;;;;;;;20.19;31.43;98745.50;4428664;32;19946;-56
2021/05/05 05:51:30;;;;;;;;;;;;;;;20.18;31.49;98749.00;4419890;32;19961;-55
2021/05/05 05:53:56;;;;;;;;;;;;;;;20.16;31.53;98750.78;4419789;32;19961;-56
2021/05/05 05:56:22;;;;;;;;;;;;;;;20.25;31.36;98749.84;4426307;32;20010;-54
2021/05/05 05:58:47;;;;;;;;;;;;;;;20.26;31.47;98750.69;4424876;32;19962;-55
2021/05/05 06:01:13;;;;;;;;;;;;;;;20.22;31.33;98750.72;4426702;32;19954;-54
2021/05/05 06:03:39;;;;;;;;;;;;;;;20.32;31.16;98753.28;4431832;32;19961;-56
2021/05/05 06:06:05;;;;;;;;;;;;;;;20.34;31.16;98759.41;4423106;32;20418;-56
2021/05/05 06:08:31;;;;;;;;;;;;;;;20.26;31.25;98756.88;4423256;32;19954;-55
2021/05/05 06:10:58;;;;;;;;;;;;;;;20.19;31.50;98761.34;4425715;32;20409;-55
2021/05/05 06:13:24;;;;;;;;;;;;;;;20.26;31.33;98766.53;4425937;32;19949;-56
2021/05/05 06:15:50;;;;;;;;;;;;;;;20.31;31.27;98764.72;4425825;32;20009;-55
2021/05/05 06:18:16;;;;;;;;;;;;;;;20.34;31.25;98760.25;4426305;32;20033;-55
2021/05/05 06:20:42;;;;;;;;;;;;;;;20.31;31.25;98770.00;4424838;32;19989;-56
2021/05/05 06:23:08;;;;;;;;;;;;;;;20.30;31.29;98758.56;4425218;32;19973;-55
2021/05/05 06:25:34;;;;;;;;;;;;;;;20.28;31.22;98759.47;4424485;32;20282;-55
2021/05/05 06:28:00;;;;;;;;;;;;;;;20.36;31.14;98762.91;4428338;32;20339;-55
2021/05/05 06:30:26;;;;;;;;;;;;;;;20.33;31.06;98758.50;4426599;32;19989;-55
2021/05/05 06:32:52;;;;;;;;;;;;;;;20.44;30.68;98771.63;4426548;32;19958;-53
2021/05/05 06:35:18;;;;;;;;;;;;;;;20.28;31.17;98770.03;4426476;32;19989;-55
2021/05/05 06:37:44;;;;;;;;;;;;;;;20.33;31.18;98784.94;4420154;32;20061;-53
2021/05/05 06:40:10;;;;;;;;;;;;;;;20.37;31.27;98785.78;4423441;32;20297;-56
2021/05/05 06:42:35;;;;;;;;;;;;;;;20.42;31.13;98786.59;4423210;32;19990;-54
2021/05/05 06:45:01;;;;;;;;;;;;;;;20.41;31.15;98786.63;4424572;32;19954;-52
2021/05/05 06:47:27;;;;;;;;;;;;;;;20.42;30.99;98783.94;4421430;32;19958;-56
2021/05/05 06:49:53;;;;;;;;;;;;;;;20.46;30.94;98790.97;4420801;32;19976;-55
2021/05/05 06:52:19;;;;;;;;;;;;;;;20.48;30.99;98793.56;4421931;32;19958;-55
2021/05/05 06:54:45;;;;;;;;;;;;;;;20.40;31.18;98792.81;4421640;32;20010;-54
2021/05/05 06:57:11;;;;;;;;;;;;;;;20.33;31.35;98789.37;4414429;32;19956;-53
2021/05/05 06:59:37;;;;;;;;;;;;;;;20.43;31.08;98790.13;4421169;32;19949;-52
2021/05/05 07:02:03;;;;;;;;;;;;;;;20.55;30.88;98783.78;4424305;32;19966;-51
2021/05/05 07:04:28;;;;;;;;;;;;;;;20.56;30.89;98785.53;4422897;32;19976;-54
2021/05/05 07:06:55;;;;;;;;;;;;;;;20.57;30.91;98796.09;4421617;32;19954;-56
2021/05/05 07:09:21;;;;;;;;;;;;;;;20.58;30.94;98789.06;4419767;32;20346;-54
2021/05/05 07:11:46;;;;;;;;;;;;;;;20.58;30.97;98791.69;4423436;32;20000;-55
2021/05/05 07:14:12;;;;;;;;;;;;;;;20.58;31.01;98800.50;4421144;32;19950;-56
2021/05/05 07:16:38;;;;;;;;;;;;;;;20.61;30.98;98800.44;4422937;32;19957;-55
2021/05/05 07:19:04;;;;;;;;;;;;;;;20.48;31.19;98791.81;4422486;32;19951;-55
2021/05/05 07:21:30;;;;;;;;;;;;;;;20.50;31.35;98790.03;4424198;32;19938;-52
2021/05/05 07:23:56;;;;;;;;;;;;;;;20.55;31.22;98792.59;4422416;32;19989;-52
2021/05/05 07:26:22;;;;;;;;;;;;;;;20.59;31.16;98790.81;4423203;32;19950;-52
2021/05/05 07:28:48;;;;;;;;;;;;;;;20.56;31.39;98793.47;4422345;32;19954;-52
2021/05/05 07:31:13;;;;;;;;;;;;;;;20.56;31.21;98789.06;4422629;32;19958;-52
2021/05/05 07:33:40;;;;;;;;;;;;;;;20.66;31.06;98792.44;4421891;32;20322;-49
2021/05/05 07:36:12;;;;;;;;;;;;;;;20.67;30.99;98798.63;4423852;32;19968;-55
2021/05/05 07:46:45;;;;;;;;;;;;;;;20.72;31.05;98804.72;4422356;32;20302;-51
2021/05/05 07:49:12;;;;;;;;;;;;;;;20.70;31.02;98810.03;4423133;32;19958;-52
2021/05/05 07:51:38;;;;;;;;;;;;;;;20.72;31.03;98816.19;4420620;32;19954;-51
2021/05/05 07:54:04;;;;;;;;;;;;;;;20.75;30.99;98805.56;4414803;32;19965;-53
2021/05/05 07:56:30;;;;;;;;;;;;;;;20.68;31.16;98795.97;4416225;32;20350;-54
2021/05/05 07:59:01;;;;;;;;;;;;;;;20.71;31.20;98805.59;4430359;32;19958;-53
2021/05/05 08:01:27;;;;;;;;;;;;;;;20.75;31.10;98816.12;4425739;32;19988;-54
2021/05/05 08:03:52;;;;;;;;;;;;;;;20.71;31.21;98811.78;4415824;32;20363;-53
2021/05/05 08:06:19;;;;;;;;;;;;;;;20.72;31.15;98816.19;4414803;32;19950;-54
2021/05/05 08:08:45;;;;;;;;;;;;;;;20.74;31.16;98805.56;4422513;32;19966;-53
2021/05/05 08:11:10;;;;;;;;;;;;;;;20.74;31.14;98805.56;4427163;32;19975;-53
2021/05/05 08:13:36;;;;;;;;;;;;;;;20.80;31.09;98810.78;4416618;32;19983;-52
2021/05/05 08:16:03;;;;;;;;;;;;;;;20.78;31.14;98810.78;4419813;32;20629;-55
2021/05/05 08:18:29;;;;;;;;;;;;;;;20.78;31.12;98802.84;4417934;32;20010;-53
2021/05/05 08:20:55;;;;;;;;;;;;;;;20.84;31.06;98807.22;4430469;32;20517;-50
2021/05/05 08:23:21;;;;;;;;;;;;;;;20.83;31.10;98812.56;4420128;32;19977;-54
2021/05/05 08:25:47;;;;;;;;;;;;;;;20.82;31.08;98803.72;4416887;32;19989;-51
2021/05/05 08:28:13;;;;;;;;;;;;;;;20.81;31.17;98809.03;4423649;32;19946;-54
2021/05/05 08:30:38;;;;;;;;;;;;;;;20.76;31.17;98809.94;4430184;32;19969;-54
2021/05/05 08:33:04;;;;;;;;;;;;;;;20.82;31.10;98813.44;4423172;32;20422;-51
2021/05/05 08:35:30;;;;;;;;;;;;;;;20.76;31.22;98815.22;4415808;32;19962;-53
2021/05/05 08:37:56;;;;;;;;;;;;;;;20.85;31.08;98823.97;4421676;32;20011;-55
2021/05/05 08:40:22;;;;;;;;;;;;;;;20.79;31.22;98817.81;4425058;32;20099;-53
2021/05/05 08:42:48;;;;;;;;;;;;;;;20.76;31.27;98825.81;4428305;32;19964;-53
2021/05/05 08:45:14;;;;;;;;;;;;;;;20.73;31.26;98823.22;4418798;32;19995;-52
2021/05/05 08:47:40;;;;;;;;;;;;;;;20.70;31.32;98815.34;4430730;32;20294;-54
2021/05/05 08:50:06;;;;;;;;;;;;;;;20.79;31.20;98820.47;4431788;32;20004;-53
2021/05/05 08:52:32;;;;;;;;;;;;;;;20.76;31.21;98817.88;4418281;32;19989;-53
2021/05/05 08:54:58;;;;;;;;;;;;;;;20.74;31.33;98827.63;4432481;32;19990;-55
2021/05/05 08:57:24;;;;;;;;;;;;;;;20.72;31.36;98828.53;4430762;32;20275;-52
2021/05/05 08:59:50;;;;;;;;;;;;;;;20.70;31.36;98832.97;4415972;32;19991;-51
2021/05/05 09:02:16;;;;;;;;;;;;;;;20.74;31.31;98827.63;4418222;32;19954;-54
2021/05/05 09:04:42;;;;;;;;;;;;;;;20.77;31.26;98822.28;4432825;32;19987;-52
2021/05/05 09:07:07;;;;;;;;;;;;;;;20.67;31.51;98836.50;4432903;32;19957;-56
2021/05/05 09:09:33;;;;;;;;;;;;;;;20.67;31.48;98867.41;4419881;32;19974;-55
2021/05/05 09:12:01;;;;;;;;;;;;;;;20.70;31.40;98872.63;4420629;32;20006;-56
2021/05/05 09:14:28;;;;;;;;;;;;;;;20.69;31.44;98868.25;4434231;32;19950;-56
2021/05/05 09:16:54;;;;;;;;;;;;;;;20.68;31.51;98863.84;4434582;32;19968;-54
2021/05/05 09:19:19;;;;;;;;;;;;;;;20.67;31.52;98862.97;4429440;32;19957;-51
2021/05/05 09:21:46;;;;;;;;;;;;;;;20.62;31.62;98854.22;4433525;32;19954;-55
2021/05/05 09:24:12;;;;;;;;;;;;;;;20.70;31.46;98846.19;4422823;32;20562;-54
2021/05/05 09:26:38;;;;;;;;;;;;;;;20.77;31.38;98848.72;4417196;32;19964;-54
2021/05/05 09:29:04;;;;;;;;;;;;;;;20.73;31.48;98856.72;4425200;32;20342;-56
2021/05/05 09:31:30;;;;;;;;;;;;;;;20.79;31.32;98846.94;4432753;32;19953;-53
2021/05/05 09:33:56;;;;;;;;;;;;;;;20.83;31.32;98846.94;4423478;32;19972;-54
2021/05/05 09:36:22;;;;;;;;;;;;;;;20.73;31.57;98852.31;4417557;32;19999;-53
2021/05/05 09:38:50;;;;;;;;;;;;;;;20.75;31.51;98858.47;4421226;32;19960;-54
2021/05/05 09:41:16;;;;;;;;;;;;;;;20.80;31.43;98863.69;4419690;32;19977;-49
2021/05/05 09:43:42;;;;;;;;;;;;;;;20.32;30.75;98861.66;4423135;32;19978;-48
2021/05/05 09:46:08;;;;;;;;;;;;;;;20.27;31.81;98868.75;4418798;32;19954;-52
2021/05/05 09:48:34;;;;;;;;;;;;;;;20.33;31.69;98884.53;4414657;32;20314;-52
2021/05/05 09:51:00;;;;;;;;;;;;;;;20.57;31.41;98893.94;4424468;32;19954;-51
2021/05/05 09:53:26;;;;;;;;;;;;;;;20.66;31.26;98911.47;4428730;32;20382;-52
2021/05/05 09:55:52;;;;;;;;;;;;;;;20.72;31.21;98943.16;4415263;32;19958;-54
2021/05/05 09:58:17;;;;;;;;;;;;;;;20.74;31.14;98951.94;4408822;32;19934;-53
2021/05/05 10:00:43;;;;;;;;;;;;;;;20.69;31.21;98952.88;4415941;32;19962;-49
2021/05/05 10:03:09;;;;;;;;;;;;;;;20.69;31.27;98960.81;4422740;32;20717;-54
2021/05/05 10:05:35;;;;;;;;;;;;;;;20.70;31.23;98952.88;4409396;32;19969;-51
2021/05/05 10:08:03;;;;;;;;;;;;;;;20.68;31.27;98954.69;4402719;32;19949;-50
2021/05/05 10:10:29;;;;;;;;;;;;;;;20.67;31.26;98944.97;4415079;32;19973;-53
2021/05/05 10:12:55;;;;;;;;;;;;;;;20.70;31.25;98936.13;4406682;32;20295;-46
2021/05/05 10:15:21;;;;;;;;;;;;;;;20.69;31.32;98945.84;4413479;32;20026;-49
2021/05/05 10:17:47;;;;;;;;;;;;;;;20.73;31.24;98929.03;4412231;32;19989;-50
2021/05/05 10:20:12;;;;;;;;;;;;;;;20.75;31.20;98942.25;4407850;32;20062;-50
2021/05/05 10:22:38;;;;;;;;;;;;;;;20.75;31.15;98934.31;4413156;32;20333;-52
2021/05/05 10:25:04;;;;;;;;;;;;;;;20.80;31.06;98929.84;4410062;32;20394;-53
2021/05/05 10:27:30;;;;;;;;;;;;;;;20.77;31.15;98928.09;4406690;32;19998;-49
2021/05/05 10:29:56;;;;;;;;;;;;;;;20.76;31.19;98934.28;4416440;32;19949;-51
2021/05/05 10:32:22;;;;;;;;;;;;;;;20.72;31.25;98929.03;4410277;32;19958;-49
2021/05/05 10:34:48;;;;;;;;;;;;;;;20.71;31.36;98936.13;4409423;32;19977;-51
2021/05/05 10:37:14;;;;;;;;;;;;;;;20.72;31.31;98940.50;4410340;32;20335;-52
2021/05/05 10:39:40;;;;;;;;;;;;;;;20.78;31.21;98944.84;4409776;32;19962;-52
2021/05/05 10:42:06;;;;;;;;;;;;;;;20.76;31.19;98955.44;4408877;32;20442;-48
2021/05/05 10:44:32;;;;;;;;;;;;;;;20.72;31.23;98977.53;4415902;32;20602;-51
2021/05/05 10:46:58;;;;;;;;;;;;;;;20.69;31.29;99004.03;4416310;32;19954;-49
2021/05/05 10:49:26;;;;;;;;;;;;;;;20.77;31.25;98990.72;4416113;32;19942;-48
2021/05/05 10:51:52;;;;;;;;;;;;;;;20.80;31.12;98990.69;4414838;32;19950;-50
2021/05/05 10:54:18;;;;;;;;;;;;;;;20.92;30.92;98981.75;4417833;32;20010;-49
2021/05/05 10:56:44;;;;;;;;;;;;;;;20.96;30.89;98985.22;4399677;32;20024;-49
2021/05/05 10:59:12;;;;;;;;;;;;;;;20.85;30.95;98982.72;4399575;32;20005;-52
2021/05/05 11:01:38;;;;;;;;;;;;;;;20.83;31.06;98984.53;4412833;32;20073;-52
2021/05/05 11:04:03;;;;;;;;;;;;;;;20.76;31.20;98973.09;4415923;32;19955;-48
2021/05/05 11:06:30;;;;;;;;;;;;;;;20.82;31.18;98978.34;4407367;32;19988;-51
2021/05/05 11:08:56;;;;;;;;;;;;;;;20.81;31.15;98973.06;4400432;32;19965;-49
2021/05/05 11:11:22;;;;;;;;;;;;;;;20.76;31.25;98979.25;4414281;32;20294;-51
2021/05/05 11:13:47;;;;;;;;;;;;;;;20.67;31.34;98974.06;4416057;32;20061;-52
2021/05/05 11:16:13;;;;;;;;;;;;;;;20.62;31.44;98979.44;4402849;32;19958;-50
2021/05/05 11:18:39;;;;;;;;;;;;;;;20.60;31.47;98961.81;4411147;32;19962;-51
2021/05/05 11:21:05;;;;;;;;;;;;;;;20.57;31.53;98970.66;4422627;32;20267;-51
2021/05/05 11:23:31;;;;;;;;;;;;;;;20.63;31.49;98983.81;4431173;32;19953;-49
2021/05/05 11:25:57;;;;;;;;;;;;;;;20.89;31.12;98989.72;4422494;32;20418;-50
2021/05/05 11:28:23;;;;;;;;;;;;;;;20.87;31.11;98975.62;4415804;32;20030;-51
2021/05/05 11:30:49;;;;;;;;;;;;;;;20.93;31.03;98994.09;4419413;32;19972;-52
2021/05/05 11:33:15;;;;;;;;;;;;;;;21.02;30.85;98995.75;4431014;32;19983;-49
2021/05/05 11:35:41;;;;;;;;;;;;;;;21.03;30.82;98993.06;4425058;32;19950;-48
2021/05/05 11:38:07;;;;;;;;;;;;;;;21.04;30.87;98986.87;4414875;32;20027;-48
2021/05/05 11:40:33;;;;;;;;;;;;;;;21.02;30.81;99009.00;4417754;32;19949;-52
2021/05/05 11:42:59;;;;;;;;;;;;;;;20.98;30.89;99024.03;4430649;32;19954;-53
2021/05/05 11:45:25;;;;;;;;;;;;;;;20.98;30.80;99034.63;4428074;32;19977;-51
2021/05/05 11:47:51;;;;;;;;;;;;;;;21.00;30.70;99040.75;4415640;32;20040;-56
2021/05/05 11:50:17;;;;;;;;;;;;;;;20.94;30.75;99085.84;4414093;32;20024;-50
2021/05/05 11:52:43;;;;;;;;;;;;;;;20.66;30.81;99072.81;4424233;32;19989;-49
2021/05/05 11:55:09;;;;;;;;;;;;;;;20.61;31.02;99091.38;4422789;32;19996;-50
2021/05/05 11:57:35;;;;;;;;;;;;;;;20.66;31.04;99096.63;4424912;32;19985;-48
2021/05/05 12:00:01;;;;;;;;;;;;;;;20.80;30.85;99096.50;4422821;32;20368;-47
2021/05/05 12:02:27;;;;;;;;;;;;;;;20.76;30.85;99084.22;4423712;32;20232;-49
2021/05/05 12:04:53;;;;;;;;;;;;;;;20.79;30.92;99085.03;4424100;32;20382;-49
2021/05/05 12:07:19;;;;;;;;;;;;;;;20.80;30.94;99088.56;4424907;32;19989;-50
2021/05/05 12:09:45;;;;;;;;;;;;;;;20.83;30.91;99091.22;4421868;32;19934;-49
2021/05/05 12:12:11;;;;;;;;;;;;;;;20.84;30.90;99092.97;4423205;32;19955;-48
2021/05/05 12:14:37;;;;;;;;;;;;;;;20.90;30.88;99097.31;4422614;32;19990;-47
2021/05/05 12:17:02;;;;;;;;;;;;;;;20.93;30.85;99107.91;4427040;32;19954;-50
2021/05/05 12:19:28;;;;;;;;;;;;;;;20.98;30.80;99106.06;4426681;32;19989;-46
2021/05/05 12:21:54;;;;;;;;;;;;;;;20.99;30.85;99118.41;4427034;32;19950;-51
2021/05/05 12:24:20;;;;;;;;;;;;;;;21.02;30.82;99134.25;4427563;32;20638;-50
2021/05/05 12:26:46;;;;;;;;;;;;;;;21.03;30.81;99136.00;4427514;32;19986;-50
2021/05/05 12:29:12;;;;;;;;;;;;;;;21.09;30.83;99158.03;4427542;32;19954;-52
2021/05/05 12:31:38;;;;;;;;;;;;;;;21.12;30.79;99160.63;4428018;32;19982;-50
2021/05/05 12:34:05;;;;;;;;;;;;;;;21.15;30.77;99172.06;4427373;32;20352;-49
2021/05/05 12:36:31;;;;;;;;;;;;;;;21.14;30.79;99185.31;4427593;32;19996;-50
2021/05/05 12:38:59;;;;;;;;;;;;;;;21.13;30.76;99195.03;4428417;32;20564;-52
2021/05/05 12:41:25;;;;;;;;;;;;;;;21.15;30.75;99202.94;4423080;32;20572;-49
2021/05/05 12:43:51;;;;;;;;;;;;;;;21.10;30.83;99205.63;4427479;32;20009;-49
2021/05/05 12:46:16;;;;;;;;;;;;;;;21.10;30.85;99200.34;4423608;32;20028;-50
2021/05/05 12:48:42;;;;;;;;;;;;;;;21.05;30.93;99208.34;4423775;32;19965;-51